Williamsbridge, New York
Current Conditions -  °F | °C
As of 1:51 AM on Wednesday 22 Oct 2014 (Local Time) from KLGA Reporting Station
Overcast Overcast  
Wind Chill: 59°   Ceiling: 1200
Heat Index: 59°   Visibility: 10mi
Dew Point: 54°   Wind: 13mph
Humidity: 83%   Direction: 40°NE
Pressure: 29.89"   Gusts: NA
Location:  40.8778°N, 73.8721°W
Report Text: KLGA 220551Z 04011KT 10SM OVC012 15/12 A2989 RMK AO2 SLP121 T01500122 10172 20139 58005
Loading
Personal Weather Stations






























Interactive Weather Map
Tropical Storm Tracking
New forecast layout! Learn more

10-Day Weather Forecast

Advertisements
Track Severe Weather on mobile